Time;durP1;ratioP1;P1;durP2;ratioP2;P2;SDS_P1;SDS_P2;PMS_P1;PMS_P2;Temp;Humidity;BMP_temperature;BMP_pressure;BME280_temperature;BME280_humidity;BME280_pressure;Samples;Min_cycle;Max_cycle;Signal;HPM_P1;HPM_P2
2023/01/22 00:00:10;;;;;;;74.05;29.83;;;;;;;1.82;100.00;102047.41;8273205;28;20045;-53
2023/01/22 00:04:15;;;;;;;64.55;27.83;;;;;;;1.88;100.00;102036.53;8281747;28;20044;-58
2023/01/22 00:08:15;;;;;;;71.13;26.70;;;;;;;1.89;100.00;102047.16;8286856;28;20045;-56
2023/01/22 00:12:16;;;;;;;70.70;27.65;;;;;;;1.83;100.00;102027.84;8287963;28;20064;-55
2023/01/22 00:16:17;;;;;;;70.78;28.73;;;;;;;1.82;100.00;102042.97;8293617;28;20065;-58
2023/01/22 00:20:17;;;;;;;71.38;28.23;;;;;;;1.81;100.00;102027.00;8293866;28;20030;-56
2023/01/22 00:24:18;;;;;;;81.78;30.45;;;;;;;1.81;100.00;102030.56;8265791;28;20049;-51
2023/01/22 00:28:18;;;;;;;70.60;29.80;;;;;;;1.85;100.00;102025.97;8293793;28;20345;-56
2023/01/22 00:32:19;;;;;;;74.65;29.05;;;;;;;1.89;100.00;102044.50;8294377;28;20044;-55
2023/01/22 00:36:21;;;;;;;61.55;26.65;;;;;;;1.94;100.00;102047.03;8293550;28;20073;-55
2023/01/22 00:40:21;;;;;;;67.75;27.30;;;;;;;1.98;100.00;102028.22;8293040;28;20419;-56
2023/01/22 00:44:22;;;;;;;67.43;28.45;;;;;;;1.97;100.00;102014.91;8292210;28;20065;-55
2023/01/22 00:48:22;;;;;;;66.97;25.50;;;;;;;1.99;100.00;102015.75;8292887;28;20038;-56
2023/01/22 00:52:23;;;;;;;65.90;26.95;;;;;;;1.96;100.00;102007.84;8294319;28;20042;-56
2023/01/22 00:56:23;;;;;;;65.05;26.67;;;;;;;1.93;100.00;102013.28;8304211;28;20039;-55
2023/01/22 01:00:24;;;;;;;64.30;27.88;;;;;;;1.92;100.00;102004.41;8292776;28;20038;-53
2023/01/22 01:04:24;;;;;;;59.13;25.50;;;;;;;1.93;100.00;101999.94;8290456;28;20034;-54
2023/01/22 01:08:27;;;;;;;64.80;27.35;;;;;;;1.87;100.00;101993.00;8290114;28;20038;-55
2023/01/22 01:12:28;;;;;;;64.85;26.50;;;;;;;1.89;100.00;101979.63;8289635;28;20330;-55
2023/01/22 01:16:30;;;;;;;63.75;26.98;;;;;;;1.88;100.00;101993.88;8287954;28;20038;-55
2023/01/22 01:20:31;;;;;;;63.00;27.40;;;;;;;1.92;100.00;101982.19;8290601;28;20064;-52
2023/01/22 01:24:32;;;;;;;59.05;26.33;;;;;;;1.90;100.00;101978.72;8290227;28;20037;-54
2023/01/22 01:28:35;;;;;;;66.75;27.80;;;;;;;1.90;100.00;101994.72;8289825;28;20041;-55
2023/01/22 01:32:35;;;;;;;58.22;26.00;;;;;;;1.88;100.00;101980.56;8289471;28;20400;-56
2023/01/22 01:36:36;;;;;;;68.03;27.90;;;;;;;1.89;100.00;101992.97;8291296;28;20121;-56
2023/01/22 01:40:42;;;;;;;54.70;25.00;;;;;;;1.88;100.00;101988.56;8292337;28;20034;-55
2023/01/22 01:44:43;;;;;;;63.22;27.45;;;;;;;1.91;100.00;101993.78;8291398;28;20470;-56
2023/01/22 01:48:46;;;;;;;66.15;28.92;;;;;;;1.88;100.00;101984.09;8260596;28;20435;-55
2023/01/22 01:52:47;;;;;;;60.63;27.00;;;;;;;1.90;100.00;101986.72;8260765;28;20084;-57
2023/01/22 01:56:51;;;;;;;63.95;28.63;;;;;;;1.86;100.00;101980.59;8286847;28;20084;-57
2023/01/22 02:00:58;;;;;;;67.07;28.75;;;;;;;1.85;100.00;101972.66;8255155;28;20090;-55
2023/01/22 02:04:58;;;;;;;67.68;28.00;;;;;;;1.84;100.00;101978.91;8289422;28;20462;-57
2023/01/22 02:08:59;;;;;;;70.32;28.67;;;;;;;1.82;100.00;101975.41;8292173;28;20060;-57
2023/01/22 02:13:06;;;;;;;71.85;28.63;;;;;;;1.81;100.00;101966.56;8290948;28;20443;-56
2023/01/22 02:17:11;;;;;;;67.57;29.20;;;;;;;1.79;100.00;101968.41;8290578;28;20129;-57
2023/01/22 02:21:31;;;;;;;70.88;30.02;;;;;;;1.81;100.00;101976.34;8291411;28;20498;-56
2023/01/22 02:25:33;;;;;;;69.13;29.65;;;;;;;1.81;100.00;101971.91;8291852;28;20038;-56
2023/01/22 02:29:35;;;;;;;68.65;27.88;;;;;;;1.81;100.00;101968.34;8291787;28;20516;-57
2023/01/22 02:33:35;;;;;;;63.97;28.17;;;;;;;1.81;100.00;101965.69;8291908;28;20387;-56
2023/01/22 02:37:36;;;;;;;74.55;30.70;;;;;;;1.82;100.00;101957.66;8297647;28;20046;-53
2023/01/22 02:41:36;;;;;;;66.28;29.60;;;;;;;1.82;100.00;101954.09;8291381;28;20121;-57
2023/01/22 02:45:37;;;;;;;62.70;26.65;;;;;;;1.83;100.00;101942.53;8294048;28;20045;-55
2023/01/22 02:49:37;;;;;;;65.45;28.27;;;;;;;1.81;100.00;101944.38;8296735;28;20041;-55
2023/01/22 02:53:38;;;;;;;66.97;28.88;;;;;;;1.77;100.00;101948.06;8297660;28;20129;-55
2023/01/22 02:57:39;;;;;;;66.15;27.50;;;;;;;1.78;100.00;101952.47;8297278;28;20169;-54
2023/01/22 03:01:39;;;;;;;69.88;28.73;;;;;;;1.79;100.00;101952.41;8296979;28;20042;-56
2023/01/22 03:05:50;;;;;;;74.05;30.02;;;;;;;1.79;100.00;101956.84;8297532;28;20030;-57
2023/01/22 03:09:52;;;;;;;70.88;31.30;;;;;;;1.79;100.00;101951.53;8296723;28;20046;-56
2023/01/22 03:22:36;;;;;;;68.93;29.75;;;;;;;1.79;100.00;101951.53;8296180;28;20099;-51
2023/01/22 03:26:36;;;;;;;72.20;30.95;;;;;;;1.80;100.00;101951.47;8296224;28;20499;-52
2023/01/22 03:30:37;;;;;;;70.15;30.25;;;;;;;1.78;100.00;101947.13;8295257;28;20033;-52
2023/01/22 03:34:38;;;;;;;74.43;32.42;;;;;;;1.77;100.00;101942.72;8295578;28;20045;-51
2023/01/22 03:38:40;;;;;;;69.00;30.35;;;;;;;1.76;100.00;101941.84;8309758;28;20042;-50
2023/01/22 03:42:45;;;;;;;67.95;29.58;;;;;;;1.75;100.00;101933.91;8296470;28;20034;-51
2023/01/22 03:46:46;;;;;;;67.07;30.88;;;;;;;1.75;100.00;101923.25;8296078;28;20084;-52
2023/01/22 03:50:47;;;;;;;71.53;29.88;;;;;;;1.73;100.00;101923.28;8293754;28;20038;-51
2023/01/22 03:54:48;;;;;;;65.68;29.52;;;;;;;1.73;100.00;101925.06;8293165;28;20034;-51
2023/01/22 03:58:49;;;;;;;65.47;29.30;;;;;;;1.70;100.00;101930.50;8289382;28;20096;-52
2023/01/22 04:02:49;;;;;;;69.55;30.35;;;;;;;1.68;100.00;101929.69;8295387;28;20038;-53
2023/01/22 04:06:55;;;;;;;65.38;30.63;;;;;;;1.69;100.00;101934.09;8295262;28;20030;-51
2023/01/22 04:10:58;;;;;;;71.53;31.17;;;;;;;1.73;100.00;101941.06;8294809;28;20157;-50
2023/01/22 04:14:58;;;;;;;63.08;29.70;;;;;;;1.73;100.00;101941.06;8294829;28;20042;-52
2023/01/22 04:19:00;;;;;;;66.78;31.77;;;;;;;1.71;100.00;101941.13;8294647;28;20507;-51
2023/01/22 04:23:21;;;;;;;71.65;29.90;;;;;;;1.74;100.00;101938.34;8295106;28;20065;-52
2023/01/22 04:27:23;;;;;;;66.35;30.55;;;;;;;1.74;100.00;101933.00;8295115;28;20564;-53
2023/01/22 04:31:25;;;;;;;62.47;29.38;;;;;;;1.75;100.00;101929.44;8294570;28;20521;-50
2023/01/22 04:35:36;;;;;;;64.10;29.55;;;;;;;1.71;100.00;101924.28;8293117;28;20049;-52
2023/01/22 04:39:36;;;;;;;66.75;30.27;;;;;;;1.74;100.00;101932.16;8293473;28;20046;-53
2023/01/22 04:43:37;;;;;;;61.83;28.15;;;;;;;1.73;100.00;101927.75;8299367;28;20076;-53
2023/01/22 04:47:40;;;;;;;63.42;29.98;;;;;;;1.70;100.00;101927.84;8293208;28;20056;-53
2023/01/22 04:51:40;;;;;;;65.72;30.48;;;;;;;1.71;100.00;101934.94;8293819;28;20044;-52
2023/01/22 04:55:41;;;;;;;65.38;28.67;;;;;;;1.70;100.00;101935.84;8292708;28;20037;-51
2023/01/22 04:59:43;;;;;;;68.78;29.75;;;;;;;1.71;100.00;101940.25;8292144;28;20121;-51
2023/01/22 05:03:45;;;;;;;65.25;30.27;;;;;;;1.69;100.00;101944.75;8293563;28;20049;-51
2023/01/22 05:07:45;;;;;;;73.13;31.55;;;;;;;1.66;100.00;101937.75;8293245;28;20038;-52
2023/01/22 05:11:46;;;;;;;68.68;30.23;;;;;;;1.67;100.00;101938.59;8291113;28;20042;-57
2023/01/22 05:15:47;;;;;;;62.63;28.65;;;;;;;1.69;100.00;101950.09;8293012;28;20034;-56
2023/01/22 05:19:48;;;;;;;65.60;28.85;;;;;;;1.68;100.00;101932.38;8292049;28;20038;-53
2023/01/22 05:23:52;;;;;;;62.22;28.88;;;;;;;1.68;100.00;101938.53;8292873;28;20076;-56
2023/01/22 05:27:53;;;;;;;56.55;25.88;;;;;;;1.68;100.00;101938.53;8291378;28;20034;-57
2023/01/22 05:32:07;;;;;;;57.95;27.20;;;;;;;1.69;100.00;101939.44;8293341;28;20046;-57
2023/01/22 05:36:13;;;;;;;57.75;26.92;;;;;;;1.67;100.00;101936.81;8293077;28;20486;-56
2023/01/22 05:40:13;;;;;;;59.28;27.52;;;;;;;1.69;100.00;101944.75;8292193;28;20410;-57
2023/01/22 05:44:17;;;;;;;48.05;24.17;;;;;;;1.69;100.00;101934.09;8291358;28;20089;-55
2023/01/22 05:48:23;;;;;;;55.42;25.92;;;;;;;1.68;100.00;101945.69;8282215;28;20431;-56
2023/01/22 05:52:29;;;;;;;53.88;25.10;;;;;;;1.66;100.00;101943.06;8292251;28;20042;-56
2023/01/22 05:56:30;;;;;;;54.38;27.02;;;;;;;1.68;100.00;101945.69;8291873;28;20402;-57
2023/01/22 06:00:31;;;;;;;54.22;25.67;;;;;;;1.68;100.00;101937.69;8291072;28;20066;-55
2023/01/22 06:04:35;;;;;;;55.92;25.40;;;;;;;1.68;100.00;101953.69;8292218;28;20036;-51
2023/01/22 06:08:45;;;;;;;52.05;25.65;;;;;;;1.65;100.00;101948.47;8291797;28;20130;-52
2023/01/22 06:12:46;;;;;;;50.47;25.83;;;;;;;1.65;100.00;101948.47;8286697;28;20124;-51
2023/01/22 06:16:47;;;;;;;53.80;25.20;;;;;;;1.64;100.00;101946.69;8290998;28;20045;-53
2023/01/22 06:20:58;;;;;;;51.67;25.45;;;;;;;1.65;100.00;101948.47;8288692;28;20036;-49
2023/01/22 06:24:59;;;;;;;55.47;28.13;;;;;;;1.65;100.00;101945.78;8295413;28;20084;-51
2023/01/22 06:29:11;;;;;;;52.85;25.98;;;;;;;1.54;100.00;101918.59;8287740;28;20048;-53
2023/01/22 06:33:14;;;;;;;58.70;27.17;;;;;;;1.61;100.00;101952.13;8277204;28;20113;-53
2023/01/22 06:37:14;;;;;;;60.75;27.20;;;;;;;1.60;100.00;101953.06;8298184;28;20088;-52
2023/01/22 06:41:16;;;;;;;60.85;27.23;;;;;;;1.60;100.00;101955.72;8297538;28;20117;-50
2023/01/22 06:45:18;;;;;;;64.63;28.85;;;;;;;1.62;100.00;101956.56;8288686;28;20033;-53
2023/01/22 06:49:25;;;;;;;59.42;29.00;;;;;;;1.60;100.00;101958.38;8275030;28;20049;-52
2023/01/22 06:53:26;;;;;;;57.95;27.42;;;;;;;1.56;100.00;101954.94;8280928;28;20487;-52
2023/01/22 06:57:26;;;;;;;59.58;28.75;;;;;;;1.59;100.00;101962.81;8283686;28;20045;-54
2023/01/22 07:01:27;;;;;;;67.00;29.15;;;;;;;1.59;100.00;101959.31;8280373;28;20499;-56
2023/01/22 07:05:27;;;;;;;64.72;28.80;;;;;;;1.57;100.00;101972.69;8296493;28;20446;-57
2023/01/22 07:09:28;;;;;;;67.55;28.77;;;;;;;1.59;100.00;101980.63;8297095;28;20125;-57
2023/01/22 07:13:28;;;;;;;58.72;28.15;;;;;;;1.59;100.00;101980.63;8288046;28;20046;-56
2023/01/22 07:17:29;;;;;;;59.58;27.85;;;;;;;1.58;100.00;101979.75;8263200;28;20157;-52
2023/01/22 07:21:29;;;;;;;67.95;30.98;;;;;;;1.57;100.00;101979.81;8273439;28;20068;-52
2023/01/22 07:25:29;;;;;;;61.95;28.73;;;;;;;1.60;100.00;101987.69;8288104;28;20042;-53
2023/01/22 07:29:30;;;;;;;63.58;28.85;;;;;;;1.59;100.00;101996.63;8291637;28;20045;-53
2023/01/22 07:33:30;;;;;;;65.55;28.20;;;;;;;1.62;100.00;101996.53;8294278;28;20052;-52
2023/01/22 07:37:31;;;;;;;63.25;28.73;;;;;;;1.63;100.00;102000.94;8294991;28;20048;-57
2023/01/22 07:41:31;;;;;;;59.67;28.20;;;;;;;1.64;100.00;102010.66;8295071;28;20399;-54
2023/01/22 07:45:32;;;;;;;67.43;28.90;;;;;;;1.65;100.00;102012.44;8292411;28;20041;-51
2023/01/22 07:49:33;;;;;;;64.20;29.42;;;;;;;1.66;100.00;102016.81;8263296;28;20144;-52
2023/01/22 07:53:34;;;;;;;56.25;27.27;;;;;;;1.67;100.00;102029.22;8263598;28;20384;-53
2023/01/22 07:57:34;;;;;;;64.20;27.90;;;;;;;1.66;100.00;102024.81;8295599;28;20534;-52
2023/01/22 08:01:35;;;;;;;67.13;30.35;;;;;;;1.67;100.00;102021.22;8294102;28;20461;-53
2023/01/22 08:05:38;;;;;;;67.55;29.45;;;;;;;1.66;100.00;102020.38;8281055;28;20383;-52
2023/01/22 08:09:39;;;;;;;63.30;30.38;;;;;;;1.69;100.00;102022.94;8270588;28;20034;-54
2023/01/22 08:13:40;;;;;;;62.63;30.33;;;;;;;1.72;100.00;102027.31;8277099;28;20042;-53
2023/01/22 08:17:40;;;;;;;62.00;28.83;;;;;;;1.71;100.00;102021.09;8288447;28;20038;-52
2023/01/22 08:21:41;;;;;;;67.20;29.85;;;;;;;1.74;100.00;102017.47;8292608;28;20033;-52
2023/01/22 08:25:41;;;;;;;65.68;28.52;;;;;;;1.78;100.00;102032.44;8291102;28;20053;-55
2023/01/22 08:29:41;;;;;;;60.97;30.17;;;;;;;1.79;100.00;102032.38;8285748;28;20134;-52
2023/01/22 08:33:42;;;;;;;63.70;28.83;;;;;;;1.82;100.00;102028.75;8279903;28;20057;-52
2023/01/22 08:37:42;;;;;;;66.93;29.17;;;;;;;1.85;100.00;102039.31;8274403;28;20045;-54
2023/01/22 08:41:43;;;;;;;64.20;29.27;;;;;;;1.88;100.00;102041.88;8271037;28;20046;-53
2023/01/22 08:45:46;;;;;;;64.03;28.42;;;;;;;1.91;100.00;102041.78;8269665;28;20112;-53
2023/01/22 08:49:47;;;;;;;65.13;29.13;;;;;;;1.90;100.00;102040.06;8278420;28;20056;-51
2023/01/22 08:53:48;;;;;;;64.57;28.55;;;;;;;1.90;100.00;102040.91;8280044;28;20124;-52
2023/01/22 08:57:53;;;;;;;58.38;26.83;;;;;;;1.93;100.00;102047.94;8269625;28;20411;-50
2023/01/22 09:01:53;;;;;;;61.60;27.83;;;;;;;1.94;100.00;102047.91;8269174;28;20495;-51
2023/01/22 09:05:56;;;;;;;51.97;26.77;;;;;;;1.98;100.00;102040.66;8289283;28;20407;-52
2023/01/22 09:09:57;;;;;;;57.15;25.58;;;;;;;2.00;100.00;102041.50;8289570;28;20042;-54
2023/01/22 09:13:58;;;;;;;51.40;24.95;;;;;;;2.05;100.00;102039.56;8296247;28;20348;-53
2023/01/22 09:17:59;;;;;;;60.80;26.48;;;;;;;2.05;100.00;102048.41;8279238;28;20460;-50
2023/01/22 09:22:05;;;;;;;49.38;24.55;;;;;;;2.10;100.00;102050.94;8280785;28;20050;-53
2023/01/22 09:26:05;;;;;;;48.78;23.88;;;;;;;2.10;100.00;102048.25;8273709;28;20054;-52
2023/01/22 09:30:08;;;;;;;54.80;24.98;;;;;;;2.15;100.00;102056.13;8281966;28;20042;-52
2023/01/22 09:34:08;;;;;;;50.63;26.25;;;;;;;2.13;100.00;102056.16;8277654;28;20049;-53
2023/01/22 09:38:12;;;;;;;52.72;25.27;;;;;;;2.13;100.00;102061.50;8268133;28;20169;-53
2023/01/22 09:42:19;;;;;;;50.25;25.00;;;;;;;2.14;100.00;102071.28;8271039;28;20030;-53
2023/01/22 09:46:27;;;;;;;51.85;24.55;;;;;;;2.18;100.00;102072.91;8275634;28;20034;-54
2023/01/22 09:50:31;;;;;;;52.17;25.30;;;;;;;2.18;100.00;102067.56;8282618;28;20096;-50
2023/01/22 09:54:32;;;;;;;50.65;25.73;;;;;;;2.16;100.00;102074.75;8282427;28;20041;-52
2023/01/22 09:58:34;;;;;;;46.58;24.33;;;;;;;2.19;100.00;102066.63;8292214;28;20166;-52
2023/01/22 10:02:43;;;;;;;55.42;26.65;;;;;;;2.21;100.00;102064.81;8272834;28;20034;-53
2023/01/22 10:06:46;;;;;;;56.70;26.00;;;;;;;2.29;100.00;102065.44;8288386;28;20038;-53
2023/01/22 10:10:46;;;;;;;52.72;25.13;;;;;;;2.30;100.00;102066.28;8258193;28;20526;-54
2023/01/22 10:14:48;;;;;;;55.40;27.98;;;;;;;2.40;100.00;102054.38;8287613;28;20408;-53
2023/01/22 10:18:53;;;;;;;61.47;25.60;;;;;;;2.41;100.00;102051.66;8289204;28;20612;-54
2023/01/22 10:23:00;;;;;;;50.22;24.38;;;;;;;2.48;100.00;102061.22;8272551;28;20062;-54
2023/01/22 10:27:12;;;;;;;50.47;24.85;;;;;;;2.48;100.00;102055.88;8287781;28;20096;-53
2023/01/22 10:31:21;;;;;;;54.60;25.45;;;;;;;2.39;100.00;102058.88;8279259;28;20045;-54
2023/01/22 10:35:23;;;;;;;53.50;25.95;;;;;;;2.40;100.00;102068.59;8243372;28;20049;-53
2023/01/22 10:39:23;;;;;;;56.10;25.88;;;;;;;2.39;100.00;102056.19;8273928;28;20418;-54
2023/01/22 10:43:33;;;;;;;49.97;24.23;;;;;;;2.40;100.00;102057.94;8288663;28;20037;-53
2023/01/22 10:47:34;;;;;;;49.65;25.23;;;;;;;2.43;100.00;102057.81;8292069;28;20037;-56
2023/01/22 10:51:38;;;;;;;54.72;26.52;;;;;;;2.41;100.00;102054.31;8289904;28;20041;-52
2023/01/22 10:55:41;;;;;;;;;;;;;;;2.43;100.00;102063.16;8274403;28;20045;-52
2023/01/22 10:59:48;;;;;;;53.63;24.83;;;;;;;2.42;100.00;102053.41;8288044;28;19926;-55
2023/01/22 11:03:49;;;;;;;59.75;28.73;;;;;;;2.39;100.00;102042.84;8267716;28;20042;-55
2023/01/22 11:08:11;;;;;;;58.35;28.17;;;;;;;2.47;100.00;102054.13;8282498;28;20044;-54
2023/01/22 11:12:21;;;;;;;57.55;27.00;;;;;;;2.49;100.00;102041.59;8289192;28;20041;-55
2023/01/22 11:16:23;;;;;;;57.03;28.00;;;;;;;2.52;100.00;102044.16;8287604;28;20514;-53
2023/01/22 11:20:35;;;;;;;57.47;28.27;;;;;;;2.50;100.00;102037.16;8277054;28;20058;-53
2023/01/22 11:24:41;;;;;;;55.50;26.90;;;;;;;2.52;100.00;102045.97;8267289;28;20042;-53
2023/01/22 11:29:21;;;;;;;51.80;25.92;;;;;;;2.58;100.00;102030.63;8290108;28;20037;-54
2023/01/22 11:34:02;;;;;;;56.13;26.27;;;;;;;2.56;100.00;102032.44;8257305;28;20052;-54
2023/01/22 11:43:02;;;;;;;55.80;27.00;;;;;;;2.52;100.00;102041.50;8352206;27;20409;-53
2023/01/22 11:51:58;;;;;;;60.60;27.98;;;;;;;2.51;100.00;102031.75;8304642;28;20368;-54
2023/01/22 11:56:26;;;;;;;55.55;27.08;;;;;;;2.51;100.00;102026.41;8275945;28;20131;-56
2023/01/22 12:00:40;;;;;;;59.58;27.60;;;;;;;2.53;100.00;102027.22;8285906;28;20045;-54
2023/01/22 12:09:10;;;;;;;56.80;27.15;;;;;;;2.60;100.00;102028.78;8292102;28;21047;-55
2023/01/22 12:13:40;;;;;;;54.37;26.63;;;;;;;2.56;100.00;102021.78;8279607;28;20046;-55
2023/01/22 12:18:20;;;;;;;51.97;26.50;;;;;;;2.58;100.00;102030.63;8282450;28;20042;-55
2023/01/22 12:26:41;;;;;;;55.80;28.05;;;;;;;2.57;100.00;102033.34;8397573;27;20367;-50
2023/01/22 12:30:50;;;;;;;59.35;26.75;;;;;;;2.56;100.00;102029.78;8353814;27;20546;-53
2023/01/22 12:35:04;;;;;;;58.50;28.30;;;;;;;2.58;100.00;102040.41;8381442;28;20044;-54
2023/01/22 12:39:21;;;;;;;58.90;27.93;;;;;;;2.56;100.00;102040.47;8380459;28;20044;-54
2023/01/22 12:43:34;;;;;;;64.32;30.42;;;;;;;2.60;100.00;102035.91;8363849;28;20040;-52
2023/01/22 12:51:58;;;;;;;59.67;27.67;;;;;;;2.58;100.00;102041.28;8390379;27;20427;-52
2023/01/22 12:56:02;;;;;;;62.65;29.30;;;;;;;2.61;100.00;102037.63;8390977;28;20047;-55
2023/01/22 13:00:23;;;;;;;62.92;29.20;;;;;;;2.60;100.00;102033.22;8383181;28;20048;-54
2023/01/22 13:04:28;;;;;;;66.78;31.45;;;;;;;2.57;100.00;102023.53;8408881;27;20072;-54
2023/01/22 13:08:39;;;;;;;71.57;33.97;;;;;;;2.58;100.00;102035.06;8390637;28;20085;-53
2023/01/22 13:12:45;;;;;;;64.63;30.75;;;;;;;2.61;100.00;102041.19;8377843;28;20048;-52
2023/01/22 13:17:03;;;;;;;68.20;34.42;;;;;;;2.60;100.00;102034.13;8377955;28;20037;-53
2023/01/22 13:21:06;;;;;;;62.65;29.90;;;;;;;2.61;100.00;102035.84;8407589;28;20131;-54
2023/01/22 13:25:27;;;;;;;61.55;29.35;;;;;;;2.63;100.00;102031.34;8409454;27;20036;-52
2023/01/22 13:29:36;;;;;;;57.08;27.75;;;;;;;2.61;100.00;102035.84;8397165;27;20123;-56
2023/01/22 13:33:36;;;;;;;57.17;28.38;;;;;;;2.63;100.00;102036.69;8403192;28;20163;-55
2023/01/22 13:37:40;;;;;;;55.55;28.20;;;;;;;2.63;100.00;102034.00;8365435;28;20107;-57
2023/01/22 13:41:40;;;;;;;62.78;28.48;;;;;;;2.66;100.00;102044.56;8384570;28;20091;-55
2023/01/22 13:45:41;;;;;;;64.38;30.35;;;;;;;2.65;100.00;102044.63;8383942;28;20041;-57
2023/01/22 13:49:42;;;;;;;58.55;28.35;;;;;;;2.65;100.00;102041.97;8376800;28;20045;-56
2023/01/22 13:53:45;;;;;;;62.30;28.58;;;;;;;2.65;100.00;102037.47;8362407;28;20091;-56
2023/01/22 13:57:48;;;;;;;63.83;28.80;;;;;;;2.66;100.00;102041.91;8389258;28;20036;-57
2023/01/22 14:01:49;;;;;;;58.70;26.98;;;;;;;2.67;100.00;102037.41;8357287;28;20049;-56
2023/01/22 14:06:03;;;;;;;55.58;27.33;;;;;;;2.68;100.00;102048.03;8362262;28;20041;-56
2023/01/22 14:10:22;;;;;;;58.22;27.40;;;;;;;2.69;100.00;102054.28;8323527;28;20049;-57
2023/01/22 14:14:22;;;;;;;57.20;27.77;;;;;;;2.67;100.00;102043.66;8357946;28;20457;-57
2023/01/22 14:18:23;;;;;;;57.53;27.30;;;;;;;2.70;100.00;102067.56;8355368;28;20037;-57
2023/01/22 14:22:24;;;;;;;63.00;28.77;;;;;;;2.70;100.00;102072.91;8372803;28;20230;-55
2023/01/22 14:26:24;;;;;;;64.57;30.65;;;;;;;2.71;100.00;102073.78;8361458;28;20040;-56
2023/01/22 14:30:25;;;;;;;58.03;29.27;;;;;;;2.70;100.00;102066.69;8335118;28;20144;-57
2023/01/22 14:34:25;;;;;;;61.05;28.95;;;;;;;2.71;100.00;102073.78;8328539;28;20045;-54
2023/01/22 14:38:27;;;;;;;65.45;28.38;;;;;;;2.70;100.00;102072.91;8320962;28;20503;-54
2023/01/22 14:42:27;;;;;;;65.22;29.08;;;;;;;2.71;100.00;102081.81;8330694;28;20053;-54
2023/01/22 14:46:27;;;;;;;60.58;28.85;;;;;;;2.70;100.00;102088.94;8332003;28;20537;-54
2023/01/22 14:50:28;;;;;;;60.72;28.08;;;;;;;2.70;100.00;102091.59;8326186;28;20124;-54
2023/01/22 14:54:29;;;;;;;60.40;28.77;;;;;;;2.73;100.00;102093.28;8354389;28;20063;-54
2023/01/22 14:58:30;;;;;;;58.45;27.98;;;;;;;2.72;100.00;102107.56;8345866;28;20046;-53
2023/01/22 15:02:30;;;;;;;64.80;30.10;;;;;;;2.70;100.00;102101.38;8339657;28;20045;-54
2023/01/22 15:06:31;;;;;;;65.85;30.15;;;;;;;2.69;100.00;102111.22;8329569;28;20345;-54
2023/01/22 15:10:31;;;;;;;59.15;28.40;;;;;;;2.70;100.00;102112.94;8321032;28;20073;-55
2023/01/22 15:14:32;;;;;;;59.10;27.40;;;;;;;2.71;100.00;102116.50;8346767;28;20506;-56
2023/01/22 15:18:34;;;;;;;62.13;28.83;;;;;;;2.73;100.00;102118.19;8319116;28;20460;-56
2023/01/22 15:22:34;;;;;;;63.13;29.58;;;;;;;2.72;100.00;102116.47;8322076;28;20040;-57
2023/01/22 15:26:36;;;;;;;62.85;28.85;;;;;;;2.74;100.00;102121.75;8335066;28;20045;-57
2023/01/22 15:30:36;;;;;;;63.67;29.85;;;;;;;2.73;100.00;102125.31;8342265;28;20049;-57
2023/01/22 15:34:37;;;;;;;64.55;28.00;;;;;;;2.73;100.00;102126.19;8325880;28;20541;-56
2023/01/22 15:38:37;;;;;;;64.05;30.20;;;;;;;2.73;100.00;102128.88;8333182;28;20044;-57
2023/01/22 15:42:38;;;;;;;63.85;29.13;;;;;;;2.73;100.00;102136.88;8338140;28;20050;-54
2023/01/22 15:46:41;;;;;;;65.25;29.10;;;;;;;2.76;100.00;102127.88;8329048;28;20068;-55
2023/01/22 15:50:42;;;;;;;61.05;28.42;;;;;;;2.77;100.00;102138.50;8325085;28;20049;-57
2023/01/22 15:54:42;;;;;;;62.53;28.20;;;;;;;2.77;100.00;102137.66;8337124;28;20048;-56
2023/01/22 15:58:43;;;;;;;69.32;30.30;;;;;;;2.77;100.00;102143.00;8329064;28;20088;-57
2023/01/22 16:02:43;;;;;;;61.70;28.17;;;;;;;2.77;100.00;102143.00;8345060;28;20110;-55
2023/01/22 16:06:44;;;;;;;68.30;29.35;;;;;;;2.76;100.00;102136.78;8326212;28;20037;-57
2023/01/22 16:10:44;;;;;;;62.00;28.35;;;;;;;2.73;100.00;102128.88;8325132;28;20056;-58
2023/01/22 16:14:45;;;;;;;67.07;28.73;;;;;;;2.75;100.00;102145.72;8321980;28;20044;-57
2023/01/22 16:18:47;;;;;;;60.55;27.63;;;;;;;2.75;100.00;102131.50;8342258;28;20041;-53
2023/01/22 16:22:47;;;;;;;65.10;28.77;;;;;;;2.76;100.00;102135.91;8359319;28;20062;-58
2023/01/22 16:26:48;;;;;;;59.80;26.73;;;;;;;2.74;100.00;102130.59;8341968;28;20660;-55
2023/01/22 16:30:48;;;;;;;62.92;28.13;;;;;;;2.73;100.00;102128.88;8355197;28;20041;-51
2023/01/22 16:34:49;;;;;;;67.00;30.77;;;;;;;2.74;100.00;102127.94;8355299;28;20044;-54
2023/01/22 16:38:50;;;;;;;64.47;29.40;;;;;;;2.78;100.00;102129.59;8330717;28;20060;-56
2023/01/22 16:42:57;;;;;;;69.82;30.70;;;;;;;2.78;100.00;102136.72;8338252;28;20294;-58
2023/01/22 16:46:59;;;;;;;71.15;31.35;;;;;;;2.79;100.00;102136.69;8344498;28;20413;-55
2023/01/22 16:50:59;;;;;;;68.00;30.77;;;;;;;2.79;100.00;102138.47;8337533;28;20037;-58
2023/01/22 16:55:00;;;;;;;75.45;31.98;;;;;;;2.77;100.00;102133.19;8342306;28;20044;-56
2023/01/22 16:59:01;;;;;;;77.32;32.25;;;;;;;2.79;100.00;102130.44;8340629;28;20040;-56
2023/01/22 17:03:02;;;;;;;70.95;30.88;;;;;;;2.80;100.00;102141.09;8346482;28;20240;-53
2023/01/22 17:07:02;;;;;;;64.82;29.65;;;;;;;2.82;100.00;102141.03;8340461;28;20040;-57
2023/01/22 17:11:04;;;;;;;70.13;32.38;;;;;;;2.80;100.00;102133.06;8344680;28;20049;-57
2023/01/22 17:15:06;;;;;;;76.20;32.60;;;;;;;2.81;100.00;102140.16;8339628;28;20045;-56
2023/01/22 17:19:06;;;;;;;69.28;31.48;;;;;;;2.82;100.00;102136.56;8344621;28;20034;-55
2023/01/22 17:23:07;;;;;;;74.00;31.77;;;;;;;2.83;100.00;102146.31;8354353;28;20334;-57
2023/01/22 17:27:08;;;;;;;68.25;31.90;;;;;;;2.81;100.00;102153.50;8333378;28;20116;-55
2023/01/22 17:31:11;;;;;;;71.63;29.58;;;;;;;2.85;100.00;102155.16;8343215;28;20494;-53
2023/01/22 17:35:12;;;;;;;77.77;33.33;;;;;;;2.88;100.00;102163.06;8320719;28;20469;-55
2023/01/22 17:39:15;;;;;;;68.93;29.95;;;;;;;2.86;100.00;102151.56;8325904;28;20080;-54
2023/01/22 17:43:15;;;;;;;74.82;31.50;;;;;;;2.88;100.00;102155.06;8330225;28;20042;-54
2023/01/22 17:47:16;;;;;;;79.22;31.38;;;;;;;2.87;100.00;102150.63;8344195;28;20037;-53
2023/01/22 17:51:20;;;;;;;80.38;33.15;;;;;;;2.85;100.00;102163.19;8319989;28;20045;-55
2023/01/22 17:55:21;;;;;;;74.65;30.88;;;;;;;2.88;100.00;102163.06;8352225;28;20106;-56
2023/01/22 17:59:23;;;;;;;80.05;31.70;;;;;;;2.86;100.00;102154.22;8341910;28;20037;-57
2023/01/22 18:03:23;;;;;;;76.93;30.95;;;;;;;2.90;100.00;102169.22;8336103;28;20539;-54
2023/01/22 18:07:24;;;;;;;71.47;31.33;;;;;;;2.90;100.00;102176.38;8326499;28;20057;-55
2023/01/22 18:11:27;;;;;;;79.55;33.72;;;;;;;2.90;100.00;102171.88;8325502;28;20348;-55
2023/01/22 18:15:27;;;;;;;77.05;32.92;;;;;;;2.92;100.00;102170.03;8320030;28;20753;-55
2023/01/22 18:19:29;;;;;;;73.50;32.35;;;;;;;2.92;100.00;102185.19;8319606;28;20053;-55
2023/01/22 18:23:29;;;;;;;75.70;30.48;;;;;;;2.92;100.00;102185.19;8335119;28;20103;-56
2023/01/22 18:27:30;;;;;;;78.70;32.78;;;;;;;2.95;100.00;102185.97;8325494;28;20526;-56
2023/01/22 18:31:31;;;;;;;79.15;31.38;;;;;;;2.96;100.00;102193.03;8332075;28;20136;-57
2023/01/22 18:35:33;;;;;;;77.88;32.47;;;;;;;2.98;100.00;102193.88;8331035;28;20153;-54
2023/01/22 18:39:33;;;;;;;79.22;31.85;;;;;;;2.98;100.00;102196.56;8331755;28;20057;-56
2023/01/22 18:43:34;;;;;;;79.68;31.25;;;;;;;2.98;100.00;102190.31;8331529;28;20041;-56
2023/01/22 18:47:36;;;;;;;78.93;32.17;;;;;;;2.99;100.00;102198.28;8320932;28;20049;-56
2023/01/22 18:51:36;;;;;;;92.88;34.63;;;;;;;2.98;100.00;102201.00;8348759;28;20053;-55
2023/01/22 18:55:36;;;;;;;86.85;33.20;;;;;;;2.96;100.00;102193.03;8335569;28;20148;-56